Nearby METAR Reports

(scroll for additional cities)

 

KPSP - Palm Springs, California, USA
Distance from station: WNW 7mi, 11km
Updated: Mon, 22-Apr-2019 4:53pm PDT
Clear
Clear
 Wind from NW
Wind: NW 12 mph , 19 km/h, Gust: 23 mph , 37 km/h
Temperature: 86°F , 30°C
Dew Point: 36°F , 2°C
Humidity: 17%
Barometer: 29.85 inHg , 1010.8 hPa
Clouds: Clear
Visibility: 10 miles , 16 km
2019/04/22 23:53 KPSP 222353Z 32010G20KT 10SM CLR 30/02 A2985 RMK AO2 SLP105 T03000017 10328 20294 58010
KTRM - Thermal/Palm Spg, California, USA
Distance from station: SE 16mi, 26km
Updated: Mon, 22-Apr-2019 4:52pm PDT
Clear
Clear
 Wind from NW
Wind: NW 20 mph , 31 km/h, Gust: 28 mph , 44 km/h
Temperature: 91°F , 33°C
Dew Point: 32°F , 0°C
Humidity: 12%
Barometer: 29.78 inHg , 1008.5 hPa
Clouds: Clear
Visibility: 10 miles , 16 km
2019/04/22 23:52 KTRM 222352Z AUTO 31017G24KT 10SM CLR 33/00 A2978 RMK AO2 SLP087 T03280000 10344 20306 56014
 
KNXP - Twentynine Palms, California, USA
Distance from station: NNE 37mi, 60km
Updated: Mon, 22-Apr-2019 4:39pm PDT
Mostly Cloudy
Mostly Cloudy
 Wind from WNW
Wind: WNW 13 mph , 20 km/h, Gust: 22 mph , 35 km/h
Temperature: 75°F , 24°C
Dew Point: 34°F , 1°C
Humidity: 22%
Barometer: 29.99 inHg , 1015.6 hPa
Clouds: Mostly Cloudy
Visibility: 7 miles , 11 km
Cloud details: Mostly Cloudy 9000 ft
Mostly Cloudy 14000 ft
2019/04/22 23:39 KNXP 222339Z 29011G19KT 7SM BKN090 BKN140 24/01 A2999 RMK AO2 WSHFT 2319 T02390011
KL35 - Big Bear City, California, USA
Distance from station: NW 43mi, 69km
Updated: Mon, 22-Apr-2019 4:55pm PDT
Overcast
Overcast
 Wind from NNW
Wind: NNW 10 mph , 17 km/h, Gust: 16 mph , 26 km/h
Temperature: 50°F , 10°C
Wind Chill: 46°F , 8°C
Dew Point: 28°F , -2°C
Humidity: 43%
Barometer: 30.11 inHg , 1019.6 hPa
Clouds: Overcast
Visibility: 10 miles , 16 km
Cloud details: Partly Cloudy 4800 ft
Mostly Cloudy 6000 ft
Overcast 9000 ft
2019/04/22 23:55 KL35 222355Z AUTO 33009G14KT 10SM SCT048 BKN060 OVC090 10/M02 A3011 R
 
KF70 - Murrieta/Temecula, California, USA
Distance from station: WSW 45mi, 73km
Updated: Mon, 22-Apr-2019 4:55pm PDT
Clear
Clear
 Wind from S
Wind: S 14 mph , 22 km/h
Temperature: 72°F , 22°C
Dew Point: 52°F , 11°C
Humidity: 50%
Barometer: 29.92 inHg , 1013.2 hPa
Clouds: Clear
Visibility: 10 miles , 16 km
2019/04/22 23:55 KF70 222355Z AUTO 19012KT 10SM CLR 22/11 A2992 RMK AO1
KRIV - Riverside/March, California, USA
Distance from station: W 51mi, 82km
Updated: Mon, 22-Apr-2019 3:58pm PDT
Clear
Clear
 Wind from WNW
Wind: WNW 16 mph , 26 km/h, Gust: 22 mph , 35 km/h
Temperature: 79°F , 26°C
Dew Point: 45°F , 7°C
Humidity: 30%
Barometer: 29.91 inHg , 1012.9 hPa
Clouds: Clear
Visibility: 10 miles , 16 km
2019/04/22 22:58 KRIV 222258Z AUTO 30014G19KT 10SM CLR 26/07 A2991 RMK AO2 SLP120 T02560067
 
KSBD - San Bernardino, California, USA
Distance from station: WNW 54mi, 86km
Updated: Mon, 22-Apr-2019 3:50pm PDT
NOT Current
Mostly Cloudy
Mostly Cloudy
 Wind from WSW
Wind: WSW 13 mph , 20 km/h
Temperature: 79°F , 26°C
Dew Point: 39°F , 4°C
Humidity: 24%
Barometer: 29.90 inHg , 1012.5 hPa
Clouds: Mostly Cloudy
Visibility: 7 miles , 11 km
Cloud details: Mostly Cloudy 5000 ft
2019/04/22 22:50 KSBD 222250Z 24011KT 7SM BKN050 26/04 A2990
KRNM - Ramona, California, USA
Distance from station: SSW 60mi, 96km
Updated: Mon, 22-Apr-2019 4:53pm PDT
Few Clouds
Few Clouds
 Wind from W
Wind: W 8 mph , 13 km/h
Temperature: 70°F , 21°C
Dew Point: 52°F , 11°C
Humidity: 53%
Barometer: 29.95 inHg , 1014.2 hPa
Clouds: Few Clouds
Visibility: 10 miles , 16 km
Cloud details: Few Clouds 4500 ft
2019/04/22 23:53 KRNM 222353Z 26007KT 10SM FEW045 21/11 A2995 RMK AO2 SLP135 T02060106 10228 20178 55004
 
KRAL - Riverside, California, USA
Distance from station: W 62mi, 100km
Updated: Mon, 22-Apr-2019 4:53pm PDT
Partly Cloudy
Partly Cloudy
 Wind from W
Wind: W 17 mph , 28 km/h, Gust: 24 mph , 39 km/h
Temperature: 75°F , 24°C
Dew Point: 48°F , 9°C
Humidity: 39%
Barometer: 29.89 inHg , 1012.2 hPa
Clouds: Partly Cloudy
Visibility: 10 miles , 16 km
Cloud details: Partly Cloudy 8000 ft
2019/04/22 23:53 KRAL 222353Z 28015G21KT 10SM SCT080 24/09 A2989 RMK AO2 SLP111 T02440094 10261 20194 56017
KOKB - Oceanside, California, USA
Distance from station: SW 68mi, 109km
Updated: Mon, 22-Apr-2019 4:52pm PDT
Clear
Clear
 Wind from W
Wind: W 9 mph , 15 km/h
Temperature: 64°F , 18°C
Dew Point: 54°F , 12°C
Humidity: 68%
Barometer: 29.94 inHg , 1013.9 hPa
Clouds: Clear
Visibility: 9 miles , 14 km
2019/04/22 23:52 KOKB 222352Z AUTO 27008KT 9SM CLR 18/12 A2994 RMK AO2 SLP139 T01780117 10200 20178 56013
 
KONT - Ontario, California, USA
Distance from station: WNW 71mi, 114km
Updated: Mon, 22-Apr-2019 4:53pm PDT
Partly Cloudy
Partly Cloudy
 Wind from W
Wind: W 17 mph , 28 km/h
Temperature: 81°F , 27°C
Dew Point: 48°F , 9°C
Humidity: 32%
Barometer: 29.91 inHg , 1012.9 hPa
Clouds: Partly Cloudy
Visibility: 10 miles , 16 km
Cloud details: Few Clouds 6000 ft
Partly Cloudy 12000 ft
2019/04/22 23:53 KONT 222353Z 26015KT 10SM FEW060 SCT120 27/09 A2991 RMK AO2 SLP118 T02670089 10283 20211 56015
KNJK - El Centro Naf, California, USA
Distance from station: SSE 78mi, 126km
Updated: Mon, 22-Apr-2019 4:56pm PDT
Partly Cloudy
Partly Cloudy
 Wind from NNW
Wind: NNW 14 mph , 22 km/h
Temperature: 88°F , 31°C
Dew Point: 27°F , -3°C
Humidity: 11%
Barometer: 29.81 inHg , 1009.5 hPa
Clouds: Partly Cloudy
Visibility: 10 miles , 16 km
Cloud details: Partly Cloudy 10000 ft
Partly Cloudy 20000 ft
2019/04/22 23:56 KNJK 222356Z 34012KT 10SM SCT100 SCT200 31/M03 A2981 RMK AO2 SLP109 T03111033 10328 20289 56014 $
 
KSEE - San Diego/Santee, California, USA
Distance from station: SSW 74mi, 120km
Updated: Mon, 22-Apr-2019 4:47pm PDT
Clear
Clear
 Wind from W
Wind: W 9 mph , 15 km/h
Temperature: 68°F , 20°C
Dew Point: 50°F , 10°C
Humidity: 53%
Barometer: 29.95 inHg , 1014.2 hPa
Clouds: Clear
Visibility: 10 miles , 16 km
2019/04/22 23:47 KSEE 222347Z 27008KT 10SM SKC 20/10 A2995
KCNO - Chino, California, USA
Distance from station: W 72mi, 116km
Updated: Mon, 22-Apr-2019 4:53pm PDT
Clear
Clear
 Wind from WSW
Wind: WSW 18 mph , 30 km/h
Temperature: 72°F , 22°C
Dew Point: 52°F , 11°C
Humidity: 50%
Barometer: 29.92 inHg , 1013.2 hPa
Clouds: Clear
Visibility: 10 miles , 16 km
2019/04/22 23:53 KCNO 222353Z 24016KT 10SM CLR 22/11 A2992 RMK AO2 SLPNO T02220111 10244 20189 56016

Metar display script from Saratoga-Weather.org